createdAt,value
2018-10-03T00:00:06.549Z,19.57
2018-10-03T00:02:35.525Z,20.00
2018-10-03T00:05:04.620Z,20.07
2018-10-03T00:07:33.783Z,19.73
2018-10-03T00:10:02.763Z,19.60
2018-10-03T00:12:31.928Z,21.27
2018-10-03T00:15:01.166Z,20.40
2018-10-03T00:17:30.221Z,20.93
2018-10-03T00:19:59.336Z,20.63
2018-10-03T00:22:28.440Z,19.10
2018-10-03T00:24:57.569Z,20.00
2018-10-03T00:27:26.555Z,19.87
2018-10-03T00:29:55.914Z,18.77
2018-10-03T00:32:25.021Z,19.73
2018-10-03T00:34:54.080Z,17.50
2018-10-03T00:37:23.177Z,17.50
2018-10-03T00:39:52.349Z,17.13
2018-10-03T00:42:21.393Z,17.90
2018-10-03T00:44:50.553Z,17.53
2018-10-03T00:47:19.649Z,17.67
2018-10-03T00:49:48.691Z,17.30
2018-10-03T00:52:17.890Z,18.10
2018-10-03T00:54:46.720Z,17.60
2018-10-03T00:57:15.690Z,18.70
2018-10-03T00:59:45.005Z,18.77
2018-10-03T01:02:14.189Z,18.70
2018-10-03T01:04:43.256Z,17.93
2018-10-03T01:07:12.477Z,17.90
2018-10-03T01:09:41.537Z,18.57
2018-10-03T01:12:10.367Z,18.20
2018-10-03T01:14:39.367Z,17.63
2018-10-03T01:17:08.521Z,17.13
2018-10-03T01:19:37.510Z,16.00
2018-10-03T01:22:06.960Z,16.70
2018-10-03T01:24:35.933Z,16.97
2018-10-03T01:27:05.042Z,15.73
2018-10-03T01:29:34.395Z,14.30
2018-10-03T01:32:03.384Z,14.33
2018-10-03T01:34:32.507Z,14.43
2018-10-03T01:37:01.901Z,14.33
2018-10-03T01:39:31.015Z,13.03
2018-10-03T01:41:59.856Z,13.13
2018-10-03T01:44:29.071Z,13.53
2018-10-03T01:46:58.092Z,13.80
2018-10-03T01:49:26.992Z,15.17
2018-10-03T01:51:55.919Z,16.40
2018-10-03T01:54:25.043Z,17.57
2018-10-03T01:56:54.227Z,17.67
2018-10-03T01:59:23.585Z,18.10
2018-10-03T02:01:52.686Z,18.53
2018-10-03T02:04:21.576Z,18.53
2018-10-03T02:06:50.529Z,19.47
2018-10-03T02:09:19.541Z,18.87
2018-10-03T02:11:48.427Z,16.50
2018-10-03T02:14:17.694Z,14.80
2018-10-03T02:16:46.702Z,14.83
2018-10-03T02:19:15.852Z,14.50
2018-10-03T02:21:45.020Z,15.30
2018-10-03T02:24:14.052Z,15.07
2018-10-03T02:26:43.124Z,15.10
2018-10-03T02:29:12.118Z,17.20
2018-10-03T02:31:41.137Z,17.80
2018-10-03T02:34:10.136Z,18.80
2018-10-03T02:36:39.485Z,19.83
2018-10-03T02:39:09.437Z,18.93
2018-10-03T02:41:38.433Z,18.57
2018-10-03T02:44:08.044Z,17.87
2018-10-03T02:46:37.044Z,18.77
2018-10-03T02:49:06.215Z,18.10
2018-10-03T02:51:35.515Z,18.67
2018-10-03T02:54:04.489Z,18.60
2018-10-03T02:56:33.552Z,18.63
2018-10-03T02:59:02.985Z,17.63
2018-10-03T03:01:32.052Z,18.77
2018-10-03T03:04:01.015Z,18.77
2018-10-03T03:06:29.947Z,18.80
2018-10-03T03:08:59.092Z,17.70
2018-10-03T03:11:28.176Z,19.77
2018-10-03T03:13:57.409Z,19.83
2018-10-03T03:16:26.534Z,20.00
2018-10-03T03:18:55.557Z,18.93
2018-10-03T03:21:24.936Z,18.20
2018-10-03T03:23:54.056Z,16.83
2018-10-03T03:26:23.173Z,17.20
2018-10-03T03:35:37.408Z,18.57
2018-10-03T03:38:06.429Z,20.07
2018-10-03T03:40:35.461Z,19.83
2018-10-03T03:43:05.067Z,21.30
2018-10-03T03:45:33.984Z,22.43
2018-10-03T03:48:02.814Z,23.70
2018-10-03T03:50:31.826Z,23.97
2018-10-03T03:53:00.977Z,23.23
2018-10-03T03:55:30.049Z,24.23
2018-10-03T03:57:59.298Z,23.90
2018-10-03T04:00:28.356Z,24.37
2018-10-03T04:02:57.261Z,24.20
2018-10-03T04:05:26.305Z,24.67
2018-10-03T04:07:55.405Z,25.27
2018-10-03T04:10:24.309Z,24.00
2018-10-03T04:12:53.255Z,23.60
2018-10-03T04:15:22.251Z,23.43
2018-10-03T04:17:51.271Z,21.87
2018-10-03T04:20:20.641Z,23.70
2018-10-03T04:22:49.570Z,22.80
2018-10-03T04:25:18.635Z,21.83
2018-10-03T04:27:47.912Z,21.97
2018-10-03T04:31:19.455Z,22.13
2018-10-03T04:33:48.545Z,23.27
2018-10-03T04:36:17.584Z,22.03
2018-10-03T04:38:46.511Z,22.13
2018-10-03T04:41:15.857Z,21.80
2018-10-03T04:43:44.744Z,21.03
2018-10-03T04:46:13.657Z,21.70
2018-10-03T04:48:42.562Z,21.47
2018-10-03T04:51:11.454Z,20.57
2018-10-03T04:53:40.320Z,20.57
2018-10-03T04:56:09.556Z,20.13
2018-10-03T04:58:38.918Z,19.03
2018-10-03T05:01:08.137Z,19.50
2018-10-03T05:03:37.678Z,20.63
2018-10-03T05:06:06.989Z,19.40
2018-10-03T05:08:36.077Z,19.37
2018-10-03T05:11:05.105Z,18.80
2018-10-03T05:13:34.049Z,17.73
2018-10-03T05:16:02.942Z,18.47
2018-10-03T05:18:32.225Z,18.10
2018-10-03T05:21:01.305Z,15.93
2018-10-03T05:23:30.217Z,16.87
2018-10-03T05:25:59.283Z,19.17
2018-10-03T05:28:28.262Z,18.10
2018-10-03T05:30:57.427Z,17.47
2018-10-03T05:33:27.064Z,17.10
2018-10-03T05:35:55.972Z,18.20
2018-10-03T05:38:25.133Z,16.63
2018-10-03T05:40:54.468Z,18.33
2018-10-03T05:43:23.428Z,17.77
2018-10-03T05:45:52.553Z,17.17
2018-10-03T05:48:22.033Z,18.00
2018-10-03T05:50:50.984Z,17.70
2018-10-03T05:53:19.968Z,17.77
2018-10-03T05:55:49.227Z,18.90
2018-10-03T05:58:18.072Z,17.67
2018-10-03T06:00:47.087Z,18.57
2018-10-03T06:03:15.966Z,18.80
2018-10-03T06:05:44.886Z,18.03
2018-10-03T06:08:13.878Z,19.63
2018-10-03T06:10:42.976Z,19.47
2018-10-03T06:13:11.904Z,19.97
2018-10-03T06:15:40.869Z,19.93
2018-10-03T06:18:10.173Z,21.20
2018-10-03T06:20:39.213Z,21.00
2018-10-03T06:23:08.082Z,21.13
2018-10-03T06:25:37.084Z,21.20
2018-10-03T06:28:06.109Z,20.90
2018-10-03T06:30:35.137Z,21.43
2018-10-03T06:33:04.585Z,20.40
2018-10-03T06:35:33.537Z,19.30
2018-10-03T06:38:02.433Z,20.40
2018-10-03T06:40:32.720Z,19.60
2018-10-03T06:43:01.686Z,19.17
2018-10-03T06:45:30.809Z,18.63
2018-10-03T06:47:59.955Z,19.13
2018-10-03T06:50:28.943Z,19.00
2018-10-03T06:52:57.879Z,17.73
2018-10-03T06:55:26.844Z,17.63
2018-10-03T06:57:55.702Z,17.17
2018-10-03T07:00:24.665Z,18.50
2018-10-03T07:02:53.609Z,17.40
2018-10-03T07:05:22.497Z,18.27
2018-10-03T07:07:51.458Z,17.57
2018-10-03T07:10:20.568Z,17.00
2018-10-03T07:12:49.517Z,17.53
2018-10-03T07:15:18.514Z,16.67
2018-10-03T07:17:47.851Z,17.30
2018-10-03T07:20:16.724Z,16.90
2018-10-03T07:22:45.552Z,17.73
2018-10-03T07:25:14.480Z,15.53
2018-10-03T07:27:43.468Z,15.57
2018-10-03T07:31:15.192Z,16.23
2018-10-03T07:33:44.045Z,16.57
2018-10-03T07:36:13.012Z,16.73
2018-10-03T07:38:42.165Z,16.17
2018-10-03T07:41:11.109Z,16.40
2018-10-03T07:43:40.089Z,15.87
2018-10-03T07:46:09.204Z,16.53
2018-10-03T07:48:38.252Z,16.23
2018-10-03T07:51:07.112Z,16.77
2018-10-03T07:53:36.190Z,15.83
2018-10-03T07:56:05.131Z,15.83
2018-10-03T07:58:34.101Z,16.37
2018-10-03T08:01:03.293Z,16.37
2018-10-03T08:03:32.298Z,16.23
2018-10-03T08:06:01.357Z,16.40
2018-10-03T08:08:30.449Z,16.87
2018-10-03T08:10:59.362Z,17.37
2018-10-03T08:13:28.231Z,16.37
2018-10-03T08:15:57.212Z,16.40
2018-10-03T08:18:26.160Z,17.00
2018-10-03T08:20:55.017Z,16.63
2018-10-03T08:23:24.014Z,17.77
2018-10-03T08:25:53.027Z,16.20
2018-10-03T08:28:22.005Z,16.07
2018-10-03T08:30:50.859Z,17.63
2018-10-03T08:33:19.767Z,30.80
2018-10-03T08:35:48.675Z,16.10
2018-10-03T08:38:18.158Z,15.77
2018-10-03T08:40:47.125Z,16.20
2018-10-03T08:43:15.980Z,17.00
2018-10-03T08:45:44.926Z,17.70
2018-10-03T08:48:13.896Z,16.43
2018-10-03T08:50:42.753Z,17.13
2018-10-03T08:53:12.154Z,14.70
2018-10-03T08:55:41.416Z,15.30
2018-10-03T08:58:10.359Z,14.30
2018-10-03T09:00:39.417Z,14.43
2018-10-03T09:03:08.333Z,15.13
2018-10-03T09:05:37.358Z,14.37
2018-10-03T09:08:14.235Z,14.57
2018-10-03T09:10:44.646Z,15.03
2018-10-03T09:13:14.022Z,15.10
2018-10-03T09:15:43.016Z,14.90
2018-10-03T09:18:12.033Z,15.57
2018-10-03T09:20:41.368Z,15.43
2018-10-03T09:23:10.233Z,15.57
2018-10-03T09:25:39.250Z,14.73
2018-10-03T09:28:08.455Z,15.70
2018-10-03T09:30:37.410Z,14.43
2018-10-03T09:33:06.233Z,14.23
2018-10-03T09:35:35.576Z,14.90
2018-10-03T09:38:04.501Z,15.33
2018-10-03T09:40:33.427Z,14.17
2018-10-03T09:43:02.604Z,14.10
2018-10-03T09:45:31.426Z,14.03
2018-10-03T09:48:00.337Z,13.22
2018-10-03T09:50:29.309Z,13.73
2018-10-03T09:52:58.254Z,12.60
2018-10-03T09:55:27.102Z,12.70
2018-10-03T09:59:25.405Z,14.07
2018-10-03T10:01:54.440Z,13.10
2018-10-03T10:04:23.330Z,13.32
2018-10-03T10:06:52.334Z,13.70
2018-10-03T10:09:21.185Z,13.85
2018-10-03T10:11:50.155Z,13.13
2018-10-03T10:14:19.179Z,12.13
2018-10-03T10:16:48.155Z,13.55
2018-10-03T10:19:17.184Z,13.78
2018-10-03T10:21:46.362Z,12.43
2018-10-03T10:24:15.350Z,12.93
2018-10-03T10:26:44.245Z,13.62
2018-10-03T10:29:13.508Z,13.75
2018-10-03T10:31:42.381Z,13.15
2018-10-03T10:34:11.354Z,12.87
2018-10-03T10:36:40.396Z,12.68
2018-10-03T10:39:11.040Z,12.13
2018-10-03T10:41:40.136Z,11.83
2018-10-03T10:44:09.687Z,11.93
2018-10-03T10:46:38.902Z,12.60
2018-10-03T10:49:08.054Z,12.33
2018-10-03T10:51:37.384Z,12.28
2018-10-03T10:54:06.344Z,12.05
2018-10-03T10:56:35.408Z,12.05
2018-10-03T10:59:04.626Z,12.70
2018-10-03T11:01:33.681Z,10.98
2018-10-03T11:04:03.124Z,11.40
2018-10-03T11:06:32.774Z,11.18
2018-10-03T11:09:01.748Z,10.95
2018-10-03T11:11:30.767Z,11.97
2018-10-03T11:14:00.018Z,11.10
2018-10-03T11:16:29.165Z,10.98
2018-10-03T11:18:58.150Z,11.12
2018-10-03T11:21:27.386Z,10.88
2018-10-03T11:23:56.372Z,10.68
2018-10-03T11:26:25.424Z,10.85
2018-10-03T11:28:54.775Z,10.95
2018-10-03T11:31:23.730Z,11.70
2018-10-03T11:33:52.681Z,11.15
2018-10-03T11:36:22.059Z,11.22
2018-10-03T11:38:51.083Z,11.68
2018-10-03T11:41:20.177Z,11.45
2018-10-03T11:43:49.599Z,11.22
2018-10-03T11:46:18.583Z,9.95
2018-10-03T11:48:47.723Z,10.40
2018-10-03T11:51:17.059Z,9.95
2018-10-03T11:53:45.967Z,10.32
2018-10-03T11:56:14.898Z,10.08
2018-10-03T11:58:44.133Z,10.53
2018-10-03T12:01:13.251Z,10.23
2018-10-03T12:03:42.290Z,10.23
2018-10-03T12:06:11.280Z,10.40
2018-10-03T12:08:40.312Z,11.85
2018-10-03T12:11:09.889Z,10.15
2018-10-03T12:13:40.200Z,10.72
2018-10-03T12:16:09.427Z,9.50
2018-10-03T12:18:58.310Z,10.48
2018-10-03T12:21:27.596Z,11.53
2018-10-03T12:23:56.566Z,11.83
2018-10-03T12:26:27.577Z,11.28
2018-10-03T12:29:00.581Z,11.10
2018-10-03T12:31:34.529Z,11.48
2018-10-03T12:34:29.776Z,12.25
2018-10-03T12:37:00.290Z,11.40
2018-10-03T12:39:29.283Z,10.68
2018-10-03T12:41:58.462Z,11.28
2018-10-03T12:44:27.784Z,11.15
2018-10-03T12:46:56.754Z,10.38
2018-10-03T12:49:25.846Z,10.88
2018-10-03T12:51:55.115Z,10.45
2018-10-03T12:54:24.207Z,10.43
2018-10-03T12:56:53.275Z,11.45
2018-10-03T12:59:22.705Z,10.23
2018-10-03T13:01:53.605Z,10.70
2018-10-03T13:04:22.769Z,10.50
2018-10-03T13:06:51.742Z,11.03
2018-10-03T13:09:20.798Z,11.83
2018-10-03T13:11:51.086Z,11.22
2018-10-03T13:14:20.253Z,12.30
2018-10-03T13:16:49.215Z,11.30
2018-10-03T13:19:18.829Z,11.08
2018-10-03T13:21:48.007Z,11.08
2018-10-03T13:24:18.467Z,10.63
2018-10-03T13:26:47.518Z,11.22
2018-10-03T13:29:16.629Z,10.40
2018-10-03T13:31:45.805Z,10.98
2018-10-03T13:34:15.128Z,11.28
2018-10-03T13:36:44.184Z,11.15
2018-10-03T13:39:13.113Z,11.03
2018-10-03T13:41:43.025Z,11.68
2018-10-03T13:44:11.934Z,12.05
2018-10-03T13:46:40.956Z,12.65
2018-10-03T13:49:10.521Z,11.88
2018-10-03T13:51:41.738Z,11.60
2018-10-03T13:54:10.962Z,12.37
2018-10-03T13:56:39.977Z,12.25
2018-10-03T13:59:09.739Z,12.37
2018-10-03T14:01:39.364Z,13.48
2018-10-03T14:04:08.956Z,12.20
2018-10-03T14:06:37.896Z,12.13
2018-10-03T14:09:10.109Z,14.43
2018-10-03T14:11:41.453Z,12.20
2018-10-03T14:14:10.614Z,11.80
2018-10-03T14:16:39.655Z,11.93
2018-10-03T14:19:08.766Z,11.70
2018-10-03T14:21:37.640Z,12.28
2018-10-03T14:24:06.676Z,12.93
2018-10-03T14:26:35.686Z,12.50
2018-10-03T14:29:04.685Z,12.70
2018-10-03T14:31:33.628Z,12.30
2018-10-03T14:34:02.625Z,14.00
2018-10-03T14:36:31.443Z,13.68
2018-10-03T14:39:00.709Z,13.08
2018-10-03T14:41:29.586Z,14.93
2018-10-03T14:43:58.480Z,13.13
2018-10-03T14:46:27.852Z,13.72
2018-10-03T14:48:56.683Z,13.13
2018-10-03T14:51:25.734Z,14.63
2018-10-03T14:53:54.690Z,14.60
2018-10-03T14:56:23.613Z,15.08
2018-10-03T14:58:52.590Z,14.55
2018-10-03T15:01:21.974Z,16.27
2018-10-03T15:03:50.966Z,16.82
2018-10-03T15:06:19.968Z,15.10
2018-10-03T15:08:49.257Z,16.27
2018-10-03T15:11:18.053Z,21.75
2018-10-03T15:13:47.614Z,15.90
2018-10-03T15:16:17.526Z,17.10
2018-10-03T15:18:46.528Z,17.52
2018-10-03T15:21:15.865Z,15.95
2018-10-03T15:23:45.809Z,16.65
2018-10-03T15:26:14.794Z,17.00
2018-10-03T15:28:43.814Z,15.48
2018-10-03T15:31:13.145Z,16.05
2018-10-03T15:33:42.398Z,15.98
2018-10-03T15:36:11.594Z,16.07
2018-10-03T15:38:41.061Z,16.80
2018-10-03T15:41:10.055Z,17.52
2018-10-03T15:43:39.104Z,17.65
2018-10-03T15:46:08.705Z,17.62
2018-10-03T15:48:37.871Z,18.48
2018-10-03T15:51:07.167Z,17.92
2018-10-03T15:53:36.363Z,18.60
2018-10-03T15:56:05.468Z,18.67
2018-10-03T15:58:34.552Z,19.30
2018-10-03T16:01:04.089Z,19.33
2018-10-03T16:03:33.103Z,19.10
2018-10-03T16:06:02.128Z,19.93
2018-10-03T16:08:31.188Z,21.17
2018-10-03T16:11:00.088Z,19.10
2018-10-03T16:13:29.017Z,19.50
2018-10-03T16:15:58.142Z,19.10
2018-10-03T16:18:27.232Z,19.83
2018-10-03T16:20:56.423Z,19.43
2018-10-03T16:23:25.468Z,19.60
2018-10-03T16:25:54.471Z,20.20
2018-10-03T16:28:23.399Z,21.43
2018-10-03T16:30:52.886Z,19.97
2018-10-03T16:33:21.917Z,18.67
2018-10-03T16:35:50.816Z,19.77
2018-10-03T16:38:20.081Z,20.63
2018-10-03T16:40:48.998Z,19.23
2018-10-03T16:43:17.977Z,20.30
2018-10-03T16:45:47.547Z,20.82
2018-10-03T16:48:16.449Z,19.97
2018-10-03T16:50:45.473Z,21.07
2018-10-03T16:53:14.879Z,19.93
2018-10-03T16:55:44.201Z,19.10
2018-10-03T16:58:13.358Z,18.97
2018-10-03T17:00:42.825Z,18.93
2018-10-03T17:03:11.905Z,20.47
2018-10-03T17:05:40.987Z,20.20
2018-10-03T17:08:10.161Z,19.60
2018-10-03T17:10:39.695Z,20.13
2018-10-03T17:14:39.336Z,19.70
2018-10-03T17:17:08.934Z,19.67
2018-10-03T17:19:38.841Z,19.40
2018-10-03T17:22:09.020Z,19.30
2018-10-03T17:24:38.841Z,20.27
2018-10-03T17:27:07.981Z,20.10
2018-10-03T17:29:37.335Z,19.33
2018-10-03T17:32:06.450Z,21.57
2018-10-03T17:34:35.549Z,19.70
2018-10-03T17:37:04.732Z,21.43
2018-10-03T17:39:33.844Z,22.97
2018-10-03T17:42:02.836Z,25.60
2018-10-03T17:44:31.918Z,25.10
2018-10-03T17:47:00.867Z,23.40
2018-10-03T17:49:51.595Z,24.13
2018-10-03T17:52:20.971Z,25.47
2018-10-03T17:54:50.918Z,24.03
2018-10-03T17:57:21.837Z,25.43
2018-10-03T17:59:51.628Z,23.60
2018-10-03T18:02:21.428Z,23.03
2018-10-03T18:04:56.194Z,21.77
2018-10-03T18:07:29.960Z,18.87
2018-10-03T18:10:05.097Z,17.93
2018-10-03T18:12:58.722Z,16.90
2018-10-03T18:15:34.592Z,15.33
2018-10-03T18:20:51.174Z,14.57
2018-10-03T18:23:25.086Z,12.90
2018-10-03T18:26:00.273Z,13.37
2018-10-03T18:28:35.762Z,12.43
2018-10-03T18:31:09.040Z,13.10
2018-10-03T18:33:45.363Z,13.00
2018-10-03T18:36:16.124Z,11.77
2018-10-03T18:38:45.586Z,11.70
2018-10-03T18:41:15.275Z,12.83
2018-10-03T18:43:54.475Z,12.83
2018-10-03T18:46:24.913Z,12.33
2018-10-03T18:48:59.826Z,13.43
2018-10-03T18:51:32.454Z,12.50
2018-10-03T18:54:02.496Z,11.17
2018-10-03T18:56:32.235Z,11.83
2018-10-03T18:59:01.969Z,11.50
2018-10-03T19:01:32.239Z,10.37
2018-10-03T19:04:01.261Z,10.20
2018-10-03T19:06:30.441Z,10.40
2018-10-03T19:08:59.523Z,10.40
2018-10-03T19:11:28.595Z,10.37
2018-10-03T19:13:57.916Z,9.57
2018-10-03T19:16:27.095Z,8.83
2018-10-03T19:18:56.070Z,9.13
2018-10-03T19:21:25.150Z,8.40
2018-10-03T19:23:54.835Z,8.27
2018-10-03T19:26:23.816Z,7.30
2018-10-03T19:28:53.251Z,6.97
2018-10-03T19:31:22.288Z,7.77
2018-10-03T19:33:51.154Z,6.90
2018-10-03T19:36:20.167Z,6.10
2018-10-03T19:38:49.286Z,6.93
2018-10-03T19:41:18.315Z,5.77
2018-10-03T19:43:47.597Z,5.87
2018-10-03T19:46:16.752Z,5.53
2018-10-03T19:48:45.794Z,5.67
2018-10-03T19:51:14.923Z,5.53
2018-10-03T19:53:44.418Z,5.63
2018-10-03T19:56:13.441Z,4.87
2018-10-03T19:58:42.416Z,4.70
2018-10-03T20:01:11.468Z,5.33
2018-10-03T20:03:40.504Z,5.33
2018-10-03T20:06:09.475Z,5.47
2018-10-03T20:08:38.513Z,5.30
2018-10-03T20:11:07.452Z,5.07
2018-10-03T20:13:36.566Z,5.30
2018-10-03T20:16:05.949Z,5.13
2018-10-03T20:18:34.845Z,5.20
2018-10-03T20:21:03.862Z,4.80
2018-10-03T20:23:33.028Z,4.70
2018-10-03T20:26:01.998Z,4.20
2018-10-03T20:28:31.055Z,4.60
2018-10-03T20:31:00.391Z,4.23
2018-10-03T20:33:29.454Z,4.57
2018-10-03T20:35:58.481Z,4.73
2018-10-03T20:38:27.593Z,4.67
2018-10-03T20:40:56.629Z,4.37
2018-10-03T20:43:25.654Z,4.43
2018-10-03T20:45:54.823Z,4.47
2018-10-03T20:48:23.760Z,5.63
2018-10-03T20:50:52.734Z,5.00
2018-10-03T20:53:21.897Z,4.40
2018-10-03T20:55:50.799Z,5.00
2018-10-03T20:58:19.731Z,4.50
2018-10-03T21:00:49.057Z,4.60
2018-10-03T21:03:18.350Z,4.60
2018-10-03T21:05:47.457Z,4.20
2018-10-03T21:08:16.574Z,5.10
2018-10-03T21:10:45.743Z,4.40
2018-10-03T21:13:14.681Z,4.60
2018-10-03T21:15:43.984Z,5.00
2018-10-03T21:18:12.909Z,4.60
2018-10-03T21:20:41.992Z,4.60
2018-10-03T21:23:11.461Z,4.47
2018-10-03T21:25:40.394Z,4.30
2018-10-03T21:28:10.585Z,4.43
2018-10-03T21:30:39.947Z,4.30
2018-10-03T21:33:08.962Z,4.73
2018-10-03T21:35:37.986Z,4.30
2018-10-03T21:38:07.629Z,4.40
2018-10-03T21:40:36.578Z,4.17
2018-10-03T21:43:05.732Z,4.30
2018-10-03T21:45:34.809Z,4.60
2018-10-03T21:48:03.921Z,4.47
2018-10-03T21:50:32.990Z,4.43
2018-10-03T21:53:02.378Z,4.77
2018-10-03T21:55:31.279Z,4.80
2018-10-03T21:58:00.329Z,4.30
2018-10-03T22:00:35.762Z,4.87
2018-10-03T22:03:04.967Z,4.60
2018-10-03T22:05:34.137Z,4.77
2018-10-03T22:08:03.498Z,4.97
2018-10-03T22:10:32.485Z,4.40
2018-10-03T22:13:01.614Z,4.63
2018-10-03T22:15:30.999Z,4.13
2018-10-03T22:17:59.979Z,4.97
2018-10-03T22:20:28.929Z,4.40
2018-10-03T22:22:58.286Z,4.60
2018-10-03T22:25:27.280Z,5.03
2018-10-03T22:27:56.275Z,4.40
2018-10-03T22:30:25.731Z,4.63
2018-10-03T22:32:54.919Z,4.40
2018-10-03T22:35:24.057Z,5.30
2018-10-03T22:37:53.007Z,5.20
2018-10-03T22:40:21.981Z,4.63
2018-10-03T22:42:50.995Z,5.03
2018-10-03T22:45:20.229Z,4.50
2018-10-03T22:47:49.206Z,4.87
2018-10-03T22:50:18.140Z,5.30
2018-10-03T22:52:47.589Z,4.73
2018-10-03T22:55:16.550Z,4.37
2018-10-03T22:57:45.692Z,4.67
2018-10-03T23:00:15.319Z,5.13
2018-10-03T23:02:44.544Z,4.03
2018-10-03T23:05:13.512Z,4.63
2018-10-03T23:07:42.834Z,4.40
2018-10-03T23:10:12.035Z,4.13
2018-10-03T23:12:40.973Z,4.73
2018-10-03T23:15:10.075Z,4.43
2018-10-03T23:17:39.263Z,4.73
2018-10-03T23:20:08.373Z,4.73
2018-10-03T23:22:37.529Z,4.63
2018-10-03T23:25:06.506Z,4.47
2018-10-03T23:27:35.666Z,3.97
2018-10-03T23:30:05.192Z,4.50
2018-10-03T23:32:34.194Z,3.63
2018-10-03T23:35:03.419Z,3.63
2018-10-03T23:37:32.512Z,4.20
2018-10-03T23:40:01.411Z,3.80
2018-10-03T23:42:30.601Z,3.63
2018-10-03T23:45:00.353Z,4.30
2018-10-03T23:47:29.222Z,4.27
2018-10-03T23:49:58.246Z,3.93
2018-10-03T23:52:27.342Z,3.23
2018-10-03T23:54:56.480Z,3.03
2018-10-03T23:57:25.603Z,3.37
2018-10-03T23:59:54.652Z,3.50
